createdAt,value
2018-09-15T00:00:59.439Z,3.93
2018-09-15T00:03:27.900Z,3.70
2018-09-15T00:05:56.417Z,2.70
2018-09-15T00:08:24.888Z,3.83
2018-09-15T00:10:53.408Z,3.20
2018-09-15T00:13:23.211Z,3.33
2018-09-15T00:15:51.708Z,3.13
2018-09-15T00:18:20.211Z,3.60
2018-09-15T00:20:48.726Z,3.27
2018-09-15T00:23:17.136Z,3.37
2018-09-15T00:25:45.852Z,2.83
2018-09-15T00:28:14.305Z,3.67
2018-09-15T00:30:43.139Z,3.60
2018-09-15T00:33:11.685Z,3.60
2018-09-15T00:35:40.336Z,3.70
2018-09-15T00:38:08.785Z,3.53
2018-09-15T00:40:37.247Z,4.40
2018-09-15T00:43:06.125Z,3.30
2018-09-15T00:45:34.690Z,3.13
2018-09-15T00:48:03.144Z,3.67
2018-09-15T00:50:31.574Z,3.10
2018-09-15T00:53:00.037Z,2.80
2018-09-15T00:55:28.547Z,4.00
2018-09-15T00:57:57.071Z,3.47
2018-09-15T01:00:25.586Z,3.07
2018-09-15T01:02:54.043Z,3.60
2018-09-15T01:05:22.691Z,4.70
2018-09-15T01:07:51.207Z,3.00
2018-09-15T01:10:19.622Z,3.10
2018-09-15T01:12:48.129Z,4.30
2018-09-15T01:15:16.910Z,2.60
2018-09-15T01:17:45.466Z,3.50
2018-09-15T01:20:14.358Z,3.60
2018-09-15T01:22:42.915Z,3.10
2018-09-15T01:25:11.326Z,3.90
2018-09-15T01:27:39.775Z,3.90
2018-09-15T01:30:08.281Z,3.87
2018-09-15T01:32:36.670Z,4.43
2018-09-15T01:35:05.194Z,3.30
2018-09-15T01:37:33.721Z,4.13
2018-09-15T01:40:02.150Z,3.50
2018-09-15T01:42:30.706Z,4.40
2018-09-15T01:44:59.137Z,4.00
2018-09-15T01:47:27.639Z,3.90
2018-09-15T01:49:56.226Z,4.00
2018-09-15T01:52:24.759Z,3.60
2018-09-15T01:54:53.198Z,3.70
2018-09-15T01:57:21.882Z,4.40
2018-09-15T01:59:50.386Z,3.67
2018-09-15T02:02:18.815Z,4.47
2018-09-15T02:04:47.705Z,3.60
2018-09-15T02:07:16.314Z,3.73
2018-09-15T02:09:44.750Z,3.63
2018-09-15T02:12:13.198Z,3.83
2018-09-15T02:14:41.583Z,3.80
2018-09-15T02:17:10.290Z,3.97
2018-09-15T02:19:38.977Z,4.20
2018-09-15T02:22:07.463Z,4.50
2018-09-15T02:24:36.294Z,4.10
2018-09-15T02:27:04.754Z,4.80
2018-09-15T02:29:33.247Z,5.27
2018-09-15T02:32:01.756Z,4.07
2018-09-15T02:34:30.393Z,4.17
2018-09-15T02:36:58.924Z,5.33
2018-09-15T02:39:27.490Z,5.20
2018-09-15T02:41:55.923Z,5.17
2018-09-15T02:44:24.317Z,4.60
2018-09-15T02:46:52.786Z,4.50
2018-09-15T02:49:21.347Z,4.70
2018-09-15T02:51:49.739Z,5.27
2018-09-15T02:54:18.157Z,4.30
2018-09-15T02:56:46.668Z,3.50
2018-09-15T02:59:15.146Z,4.50
2018-09-15T03:01:43.555Z,3.47
2018-09-15T03:04:12.118Z,4.60
2018-09-15T03:06:40.547Z,4.30
2018-09-15T03:09:11.127Z,4.50
2018-09-15T03:11:39.648Z,5.07
2018-09-15T03:14:08.139Z,4.20
2018-09-15T03:16:37.174Z,4.77
2018-09-15T03:19:05.807Z,4.27
2018-09-15T03:21:34.212Z,4.50
2018-09-15T03:24:02.884Z,4.50
2018-09-15T03:26:31.718Z,3.97
2018-09-15T03:29:00.166Z,4.63
2018-09-15T03:31:28.711Z,5.23
2018-09-15T03:33:57.100Z,3.80
2018-09-15T03:36:25.539Z,4.43
2018-09-15T03:38:54.195Z,3.50
2018-09-15T03:41:22.675Z,5.23
2018-09-15T03:43:51.035Z,4.70
2018-09-15T03:46:19.715Z,4.80
2018-09-15T03:48:48.210Z,4.87
2018-09-15T03:51:16.615Z,4.60
2018-09-15T03:53:45.155Z,3.30
2018-09-15T03:56:13.834Z,4.40
2018-09-15T03:58:42.211Z,3.70
2018-09-15T04:01:10.674Z,4.70
2018-09-15T04:03:39.197Z,4.33
2018-09-15T04:06:07.626Z,3.87
2018-09-15T04:08:36.430Z,4.67
2018-09-15T04:11:05.018Z,4.27
2018-09-15T04:13:33.434Z,4.80
2018-09-15T04:16:02.030Z,5.07
2018-09-15T04:18:30.778Z,4.80
2018-09-15T04:20:59.238Z,4.80
2018-09-15T04:23:27.857Z,4.47
2018-09-15T04:25:56.263Z,4.33
2018-09-15T04:28:24.799Z,5.30
2018-09-15T04:30:53.204Z,4.60
2018-09-15T04:33:21.735Z,5.20
2018-09-15T04:35:50.183Z,4.40
2018-09-15T04:38:18.612Z,5.60
2018-09-15T04:40:47.070Z,4.33
2018-09-15T04:43:15.543Z,5.57
2018-09-15T04:45:44.134Z,5.07
2018-09-15T04:48:12.510Z,5.07
2018-09-15T04:50:40.955Z,5.10
2018-09-15T04:53:09.471Z,4.63
2018-09-15T04:55:37.891Z,5.80
2018-09-15T04:58:06.351Z,4.57
2018-09-15T05:00:34.938Z,5.50
2018-09-15T05:03:03.478Z,4.97
2018-09-15T05:05:32.047Z,5.23
2018-09-15T05:08:00.556Z,4.40
2018-09-15T05:10:29.054Z,4.93
2018-09-15T05:12:57.502Z,6.10
2018-09-15T05:15:26.081Z,5.33
2018-09-15T05:17:54.498Z,5.17
2018-09-15T05:20:22.977Z,5.17
2018-09-15T05:22:51.386Z,5.13
2018-09-15T05:25:19.855Z,4.90
2018-09-15T05:27:48.358Z,5.30
2018-09-15T05:30:17.186Z,5.67
2018-09-15T05:32:45.695Z,5.47
2018-09-15T05:35:14.219Z,5.40
2018-09-15T05:37:42.627Z,5.40
2018-09-15T05:40:11.132Z,5.50
2018-09-15T05:42:39.526Z,5.40
2018-09-15T05:45:08.295Z,6.27
2018-09-15T05:47:36.762Z,5.57
2018-09-15T05:50:05.526Z,6.10
2018-09-15T05:52:34.187Z,5.20
2018-09-15T05:55:02.739Z,5.60
2018-09-15T05:57:31.207Z,8.03
2018-09-15T05:59:59.887Z,5.93
2018-09-15T06:02:28.411Z,6.03
2018-09-15T06:04:56.802Z,5.47
2018-09-15T06:07:25.499Z,5.30
2018-09-15T06:09:53.891Z,5.40
2018-09-15T06:12:22.339Z,5.47
2018-09-15T06:14:50.996Z,5.03
2018-09-15T06:17:19.455Z,6.80
2018-09-15T06:19:47.847Z,5.87
2018-09-15T06:22:16.363Z,5.90
2018-09-15T06:24:44.871Z,5.17
2018-09-15T06:27:13.282Z,5.63
2018-09-15T06:29:41.767Z,5.17
2018-09-15T06:32:10.272Z,5.80
2018-09-15T06:34:38.831Z,6.37
2018-09-15T06:37:07.372Z,5.60
2018-09-15T06:39:35.847Z,6.10
2018-09-15T06:42:04.295Z,5.90
2018-09-15T06:44:32.966Z,5.50
2018-09-15T06:47:01.482Z,5.40
2018-09-15T06:49:29.894Z,5.47
2018-09-15T06:51:58.351Z,6.03
2018-09-15T06:54:26.795Z,6.30
2018-09-15T06:56:55.231Z,5.77
2018-09-15T06:59:23.738Z,5.00
2018-09-15T07:01:52.326Z,5.33
2018-09-15T07:04:20.838Z,5.23
2018-09-15T07:06:49.376Z,4.90
2018-09-15T07:09:17.855Z,4.77
2018-09-15T07:11:46.343Z,5.90
2018-09-15T07:14:14.996Z,5.93
2018-09-15T07:16:43.478Z,5.60
2018-09-15T07:19:11.915Z,5.87
2018-09-15T07:21:40.682Z,6.17
2018-09-15T07:24:09.230Z,6.40
2018-09-15T07:26:37.742Z,5.60
2018-09-15T07:29:06.335Z,5.30
2018-09-15T07:31:35.030Z,5.63
2018-09-15T07:34:03.482Z,6.03
2018-09-15T07:36:32.031Z,6.07
2018-09-15T07:39:00.486Z,6.00
2018-09-15T07:41:28.950Z,5.70
2018-09-15T07:43:57.743Z,5.47
2018-09-15T07:46:26.146Z,5.47
2018-09-15T07:48:54.687Z,3.70
2018-09-15T07:51:23.343Z,5.00
2018-09-15T07:53:52.255Z,3.53
2018-09-15T07:56:20.786Z,4.00
2018-09-15T07:58:49.255Z,2.90
2018-09-15T08:01:17.682Z,3.20
2018-09-15T08:03:46.182Z,3.10
2018-09-15T08:06:14.815Z,2.80
2018-09-15T08:08:43.323Z,3.43
2018-09-15T08:11:12.171Z,3.27
2018-09-15T08:13:40.507Z,2.97
2018-09-15T08:16:09.133Z,3.17
2018-09-15T08:18:37.575Z,3.13
2018-09-15T08:21:06.162Z,2.97
2018-09-15T08:23:34.643Z,2.60
2018-09-15T08:26:03.244Z,3.23
2018-09-15T08:28:31.658Z,2.60
2018-09-15T08:31:00.178Z,2.50
2018-09-15T08:33:28.667Z,2.40
2018-09-15T08:35:57.655Z,2.30
2018-09-15T08:38:26.140Z,2.80
2018-09-15T08:40:54.594Z,1.67
2018-09-15T08:43:23.087Z,2.83
2018-09-15T08:45:53.291Z,1.90
2018-09-15T08:48:22.355Z,1.97
2018-09-15T08:50:50.838Z,2.30
2018-09-15T08:53:19.293Z,1.40
2018-09-15T08:55:47.837Z,1.50
2018-09-15T08:58:16.474Z,2.03
2018-09-15T09:00:44.911Z,2.17
2018-09-15T09:03:13.703Z,1.03
2018-09-15T09:05:42.231Z,1.10
2018-09-15T09:08:10.654Z,1.40
2018-09-15T09:10:39.148Z,1.30
2018-09-15T09:13:07.824Z,1.47
2018-09-15T09:15:36.366Z,1.07
2018-09-15T09:18:04.865Z,1.27
2018-09-15T09:20:33.770Z,1.30
2018-09-15T09:23:02.256Z,4.23
2018-09-15T09:25:30.869Z,1.30
2018-09-15T09:27:59.602Z,1.20
2018-09-15T09:30:28.162Z,1.30
2018-09-15T09:32:56.638Z,1.17
2018-09-15T09:35:25.326Z,1.10
2018-09-15T09:37:53.802Z,1.10
2018-09-15T09:40:22.406Z,1.10
2018-09-15T09:42:51.232Z,1.00
2018-09-15T09:45:20.522Z,0.90
2018-09-15T09:47:49.029Z,0.97
2018-09-15T09:50:17.683Z,1.83
2018-09-15T09:52:46.095Z,1.27
2018-09-15T09:55:14.656Z,1.37
2018-09-15T09:57:43.098Z,1.00
2018-09-15T10:00:15.701Z,0.87
2018-09-15T10:02:44.419Z,0.93
2018-09-15T10:05:12.879Z,1.00
2018-09-15T10:07:41.418Z,0.97
2018-09-15T10:10:10.130Z,0.90
2018-09-15T10:12:38.576Z,1.20
2018-09-15T10:15:07.103Z,1.03
2018-09-15T10:17:35.926Z,0.80
2018-09-15T10:20:04.483Z,1.10
2018-09-15T10:22:32.943Z,0.80
2018-09-15T10:25:01.773Z,0.93
2018-09-15T10:27:30.263Z,0.70
2018-09-15T10:29:58.686Z,0.90
2018-09-15T10:32:27.400Z,1.13
2018-09-15T10:34:55.843Z,0.87
2018-09-15T10:37:24.328Z,1.00
2018-09-15T10:39:53.195Z,2.70
2018-09-15T10:42:21.710Z,1.27
2018-09-15T10:44:50.149Z,1.33
2018-09-15T10:47:18.966Z,1.00
2018-09-15T10:49:47.556Z,0.87
2018-09-15T10:52:16.127Z,1.00
2018-09-15T10:54:44.951Z,0.67
2018-09-15T10:57:13.459Z,0.80
2018-09-15T10:59:41.980Z,1.23
2018-09-15T11:02:14.475Z,0.63
2018-09-15T11:04:44.766Z,0.63
2018-09-15T11:07:13.431Z,1.07
2018-09-15T11:09:41.999Z,0.60
2018-09-15T11:12:10.714Z,0.70
2018-09-15T11:14:39.117Z,0.60
2018-09-15T11:17:07.582Z,0.80
2018-09-15T11:19:36.079Z,1.20
2018-09-15T11:22:05.058Z,0.70
2018-09-15T11:24:34.722Z,0.90
2018-09-15T11:27:03.859Z,0.60
2018-09-15T11:29:32.263Z,0.50
2018-09-15T11:32:00.983Z,0.70
2018-09-15T11:34:29.515Z,0.73
2018-09-15T11:36:57.987Z,0.60
2018-09-15T11:39:26.870Z,0.60
2018-09-15T11:41:55.338Z,0.60
2018-09-15T11:44:23.775Z,1.30
2018-09-15T11:46:52.350Z,1.33
2018-09-15T11:49:20.795Z,0.80
2018-09-15T11:51:49.299Z,1.03
2018-09-15T11:54:17.839Z,0.83
2018-09-15T11:56:46.458Z,0.70
2018-09-15T11:59:15.004Z,0.77
2018-09-15T12:01:43.559Z,0.77
2018-09-15T12:04:11.979Z,0.50
2018-09-15T12:06:40.428Z,0.50
2018-09-15T12:09:09.896Z,0.60
2018-09-15T12:11:38.406Z,1.10
2018-09-15T12:14:07.114Z,0.60
2018-09-15T12:16:35.707Z,1.10
2018-09-15T12:19:04.179Z,0.53
2018-09-15T12:21:32.680Z,0.60
2018-09-15T12:24:01.223Z,1.20
2018-09-15T12:26:29.863Z,0.50
2018-09-15T12:28:58.564Z,0.53
2018-09-15T12:31:27.075Z,0.63
2018-09-15T12:33:55.671Z,1.80
2018-09-15T12:36:24.252Z,0.60
2018-09-15T12:38:52.978Z,0.80
2018-09-15T12:41:21.415Z,0.63
2018-09-15T12:43:49.919Z,0.50
2018-09-15T12:46:18.478Z,0.50
2018-09-15T12:48:47.235Z,0.57
2018-09-15T12:51:15.694Z,0.50
2018-09-15T12:53:44.456Z,0.60
2018-09-15T12:56:13.113Z,0.50
2018-09-15T12:58:41.570Z,0.40
2018-09-15T13:01:10.130Z,0.50
2018-09-15T13:03:38.546Z,0.50
2018-09-15T13:06:07.390Z,0.63
2018-09-15T13:08:35.983Z,0.53
2018-09-15T13:11:04.604Z,0.60
2018-09-15T13:13:33.338Z,0.60
2018-09-15T13:16:01.919Z,0.60
2018-09-15T13:18:30.354Z,0.80
2018-09-15T13:20:58.858Z,0.50
2018-09-15T13:23:27.325Z,0.50
2018-09-15T13:25:55.806Z,0.57
2018-09-15T13:28:24.300Z,0.70
2018-09-15T13:30:53.079Z,0.60
2018-09-15T13:33:21.595Z,0.70
2018-09-15T13:35:50.037Z,0.60
2018-09-15T13:38:18.520Z,0.53
2018-09-15T13:40:47.059Z,0.50
2018-09-15T13:43:15.532Z,0.60
2018-09-15T13:45:44.208Z,0.60
2018-09-15T13:48:12.734Z,0.50
2018-09-15T13:50:41.195Z,0.40
2018-09-15T13:53:09.921Z,0.50
2018-09-15T13:55:38.396Z,0.40
2018-09-15T13:58:06.875Z,0.57
2018-09-15T14:00:35.631Z,0.40
2018-09-15T14:03:04.059Z,0.67
2018-09-15T14:05:32.530Z,0.60
2018-09-15T14:08:01.210Z,0.57
2018-09-15T14:10:29.704Z,0.60
2018-09-15T14:12:58.218Z,0.70
2018-09-15T14:15:26.767Z,0.53
2018-09-15T14:17:55.214Z,0.47
2018-09-15T14:20:23.647Z,0.40
2018-09-15T14:22:52.127Z,0.57
2018-09-15T14:25:20.595Z,0.70
2018-09-15T14:27:49.235Z,0.57
2018-09-15T14:30:17.731Z,0.53
2018-09-15T14:32:46.309Z,0.53
2018-09-15T14:35:14.814Z,0.83
2018-09-15T14:37:43.450Z,0.80
2018-09-15T14:40:11.932Z,0.50
2018-09-15T14:42:40.391Z,0.57
2018-09-15T14:45:09.187Z,0.80
2018-09-15T14:47:37.663Z,0.73
2018-09-15T14:50:06.222Z,0.60
2018-09-15T14:52:34.783Z,0.80
2018-09-15T14:55:03.231Z,0.70
2018-09-15T14:57:31.614Z,0.80
2018-09-15T15:00:00.419Z,0.60
2018-09-15T15:02:29.614Z,0.60
2018-09-15T15:04:58.183Z,0.60
2018-09-15T15:07:26.910Z,0.43
2018-09-15T15:09:55.370Z,0.70
2018-09-15T15:12:23.814Z,0.90
2018-09-15T15:14:52.379Z,0.93
2018-09-15T15:17:20.831Z,0.77
2018-09-15T15:19:49.301Z,0.80
2018-09-15T15:22:17.760Z,0.73
2018-09-15T15:24:46.323Z,0.70
2018-09-15T15:27:14.873Z,0.60
2018-09-15T15:29:43.419Z,0.70
2018-09-15T15:32:11.954Z,0.73
2018-09-15T15:34:40.476Z,0.90
2018-09-15T15:37:09.239Z,0.70
2018-09-15T15:39:37.659Z,0.73
2018-09-15T15:42:06.157Z,0.70
2018-09-15T15:44:34.746Z,0.70
2018-09-15T15:47:03.206Z,0.63
2018-09-15T15:49:31.640Z,0.73
2018-09-15T15:52:00.421Z,0.90
2018-09-15T15:54:29.373Z,0.83
2018-09-15T15:56:57.872Z,1.00
2018-09-15T15:59:26.499Z,0.47
2018-09-15T16:01:55.255Z,0.60
2018-09-15T16:04:23.737Z,1.10
2018-09-15T16:06:52.395Z,0.77
2018-09-15T16:09:20.806Z,0.90
2018-09-15T16:11:49.199Z,0.80
2018-09-15T16:14:18.000Z,0.80
2018-09-15T16:16:46.426Z,0.87
2018-09-15T16:19:15.643Z,0.70
2018-09-15T16:21:44.455Z,1.00
2018-09-15T16:24:13.049Z,0.80
2018-09-15T16:26:41.483Z,1.00
2018-09-15T16:29:09.995Z,1.10
2018-09-15T16:31:38.447Z,0.90
2018-09-15T16:34:07.015Z,0.70
2018-09-15T16:36:35.470Z,0.80
2018-09-15T16:39:05.324Z,0.77
2018-09-15T16:41:33.803Z,1.10
2018-09-15T16:44:02.335Z,0.77
2018-09-15T16:46:30.953Z,0.80
2018-09-15T16:48:59.424Z,0.70
2018-09-15T16:51:28.054Z,1.10
2018-09-15T16:53:56.486Z,1.03
2018-09-15T16:56:25.111Z,1.00
2018-09-15T16:58:53.838Z,0.90
2018-09-15T17:01:22.403Z,1.43
2018-09-15T17:03:50.843Z,0.77
2018-09-15T17:06:19.402Z,0.93
2018-09-15T17:08:47.827Z,0.87
2018-09-15T17:11:16.385Z,1.00
2018-09-15T17:13:45.002Z,1.10
2018-09-15T17:16:13.531Z,0.80
2018-09-15T17:18:42.055Z,0.80
2018-09-15T17:21:10.599Z,1.10
2018-09-15T17:23:39.031Z,0.67
2018-09-15T17:26:07.992Z,0.70
2018-09-15T17:28:36.546Z,1.40
2018-09-15T17:31:05.065Z,0.83
2018-09-15T17:33:33.463Z,0.60
2018-09-15T17:36:02.166Z,1.20
2018-09-15T17:38:30.599Z,0.63
2018-09-15T17:40:59.091Z,0.87
2018-09-15T17:43:27.620Z,1.00
2018-09-15T17:45:56.039Z,1.10
2018-09-15T17:48:24.643Z,1.10
2018-09-15T17:50:53.460Z,1.20
2018-09-15T17:53:21.975Z,1.10
2018-09-15T17:55:50.450Z,0.70
2018-09-15T17:58:19.451Z,0.80
2018-09-15T18:00:48.533Z,0.70
2018-09-15T18:03:16.962Z,0.90
2018-09-15T18:05:45.750Z,1.10
2018-09-15T18:08:14.254Z,0.70
2018-09-15T18:10:42.707Z,0.97
2018-09-15T18:13:11.484Z,0.87
2018-09-15T18:15:39.981Z,1.10
2018-09-15T18:18:08.431Z,0.70
2018-09-15T18:20:36.952Z,0.70
2018-09-15T18:23:05.644Z,1.30
2018-09-15T18:25:34.123Z,0.80
2018-09-15T18:28:02.825Z,1.40
2018-09-15T18:30:31.380Z,0.83
2018-09-15T18:33:00.171Z,0.77
2018-09-15T18:35:28.775Z,0.80
2018-09-15T18:37:57.351Z,1.00
2018-09-15T18:40:25.826Z,0.93
2018-09-15T18:42:54.941Z,1.23
2018-09-15T18:45:23.471Z,1.43
2018-09-15T18:47:52.060Z,1.13
2018-09-15T18:50:20.547Z,0.73
2018-09-15T18:52:48.976Z,1.20
2018-09-15T18:55:17.418Z,1.13
2018-09-15T18:57:46.398Z,0.90
2018-09-15T19:00:15.032Z,0.80
2018-09-15T19:02:43.508Z,1.10
2018-09-15T19:05:12.047Z,1.30
2018-09-15T19:07:40.487Z,0.90
2018-09-15T19:10:09.019Z,0.80
2018-09-15T19:12:37.660Z,1.10
2018-09-15T19:15:06.272Z,1.23
2018-09-15T19:17:34.751Z,1.57
2018-09-15T19:20:03.307Z,2.20
2018-09-15T19:22:31.928Z,1.97
2018-09-15T19:25:00.667Z,1.63
2018-09-15T19:27:29.322Z,1.67
2018-09-15T19:29:57.847Z,1.47
2018-09-15T19:32:26.471Z,1.63
2018-09-15T19:34:55.067Z,1.33
2018-09-15T19:37:23.515Z,1.17
2018-09-15T19:39:52.063Z,1.30
2018-09-15T19:42:21.819Z,1.87
2018-09-15T19:44:52.312Z,1.60
2018-09-15T19:47:20.800Z,1.50
2018-09-15T19:49:49.425Z,0.93
2018-09-15T19:52:18.222Z,1.10
2018-09-15T19:54:46.883Z,1.23
2018-09-15T19:57:15.429Z,2.00
2018-09-15T19:59:43.979Z,1.00
2018-09-15T20:02:12.801Z,1.50
2018-09-15T20:04:41.263Z,0.93
2018-09-15T20:07:09.828Z,1.13
2018-09-15T20:09:38.419Z,1.50
2018-09-15T20:12:07.069Z,1.20
2018-09-15T20:14:35.551Z,1.10
2018-09-15T20:17:02.840Z,1.10
2018-09-15T20:19:30.056Z,1.30
2018-09-15T20:21:57.263Z,1.40
2018-09-15T20:24:25.973Z,1.20
2018-09-15T20:26:54.445Z,2.57
2018-09-15T20:29:22.923Z,3.10
2018-09-15T20:31:52.160Z,2.53
2018-09-15T20:34:20.619Z,1.77
2018-09-15T20:36:49.246Z,2.10
2018-09-15T20:39:18.015Z,1.83
2018-09-15T20:41:46.523Z,2.47
2018-09-15T20:44:15.147Z,1.93
2018-09-15T20:46:43.983Z,2.10
2018-09-15T20:49:13.435Z,2.53
2018-09-15T20:51:41.807Z,2.33
2018-09-15T20:54:10.495Z,2.47
2018-09-15T20:56:38.946Z,3.40
2018-09-15T20:59:07.747Z,2.40
2018-09-15T21:01:36.391Z,2.37
2018-09-15T21:04:04.863Z,1.87
2018-09-15T21:06:33.327Z,1.70
2018-09-15T21:09:01.985Z,1.57
2018-09-15T21:11:30.479Z,2.20
2018-09-15T21:13:58.989Z,2.03
2018-09-15T21:16:27.564Z,1.73
2018-09-15T21:18:56.024Z,2.03
2018-09-15T21:21:24.489Z,2.23
2018-09-15T21:23:53.254Z,2.33
2018-09-15T21:26:21.687Z,2.10
2018-09-15T21:28:50.265Z,2.20
2018-09-15T21:31:18.816Z,1.67
2018-09-15T21:33:47.410Z,1.50
2018-09-15T21:36:15.987Z,1.93
2018-09-15T21:38:44.976Z,2.07
2018-09-15T21:41:13.355Z,1.87
2018-09-15T21:43:41.751Z,1.63
2018-09-15T21:46:10.407Z,1.93
2018-09-15T21:48:38.787Z,1.60
2018-09-15T21:51:07.563Z,1.77
2018-09-15T21:53:36.199Z,1.77
2018-09-15T21:56:04.740Z,2.27
2018-09-15T21:58:33.196Z,1.93
2018-09-15T22:01:02.634Z,1.67
2018-09-15T22:03:31.607Z,1.70
2018-09-15T22:06:00.363Z,1.93
2018-09-15T22:08:29.110Z,1.90
2018-09-15T22:10:57.562Z,2.90
2018-09-15T22:13:26.033Z,2.10
2018-09-15T22:15:54.620Z,2.10
2018-09-15T22:18:22.971Z,1.73
2018-09-15T22:20:51.530Z,2.00
2018-09-15T22:23:20.035Z,2.40
2018-09-15T22:25:48.543Z,1.90
2018-09-15T22:28:17.018Z,1.93
2018-09-15T22:30:45.642Z,1.70
2018-09-15T22:33:14.150Z,2.10
2018-09-15T22:35:42.671Z,1.53
2018-09-15T22:38:11.243Z,2.10
2018-09-15T22:40:39.762Z,2.60
2018-09-15T22:43:08.235Z,2.47
2018-09-15T22:45:36.680Z,2.33
2018-09-15T22:48:05.128Z,2.03
2018-09-15T22:50:33.651Z,2.43
2018-09-15T22:53:02.250Z,1.80
2018-09-15T22:55:30.719Z,2.30
2018-09-15T22:57:59.231Z,2.30
2018-09-15T23:00:27.655Z,2.30
2018-09-15T23:02:56.043Z,2.03
2018-09-15T23:05:24.531Z,1.93
2018-09-15T23:07:53.574Z,2.30
2018-09-15T23:10:22.123Z,2.53
2018-09-15T23:12:50.582Z,1.90
2018-09-15T23:15:19.338Z,2.00
2018-09-15T23:17:47.747Z,1.77
2018-09-15T23:20:16.134Z,2.30
2018-09-15T23:22:44.687Z,2.87
2018-09-15T23:25:13.198Z,2.20
2018-09-15T23:27:41.650Z,2.13
2018-09-15T23:30:10.291Z,2.47
2018-09-15T23:32:38.775Z,2.87
2018-09-15T23:35:07.427Z,2.83
2018-09-15T23:37:35.860Z,2.77
2018-09-15T23:40:04.310Z,2.80
2018-09-15T23:42:32.777Z,2.63
2018-09-15T23:45:01.223Z,3.73
2018-09-15T23:47:29.649Z,2.83
2018-09-15T23:49:58.093Z,3.30
2018-09-15T23:52:26.678Z,3.20
2018-09-15T23:54:55.131Z,2.60
2018-09-15T23:57:23.564Z,3.10
2018-09-15T23:59:52.091Z,3.30
